createdAt,value
2022-11-28T00:01:39.962Z,40.03
2022-11-28T00:04:08.293Z,37.95
2022-11-28T00:06:41.416Z,37.67
2022-11-28T00:09:09.281Z,42.60
2022-11-28T00:11:37.328Z,38.00
2022-11-28T00:14:04.715Z,36.58
2022-11-28T00:16:32.623Z,34.55
2022-11-28T00:19:01.342Z,39.38
2022-11-28T00:21:29.324Z,37.60
2022-11-28T00:23:57.507Z,35.67
2022-11-28T00:26:45.044Z,34.85
2022-11-28T00:29:12.659Z,38.97
2022-11-28T00:31:44.415Z,34.85
2022-11-28T00:34:13.573Z,34.08
2022-11-28T00:36:42.382Z,38.47
2022-11-28T00:39:09.832Z,37.55
2022-11-28T00:41:37.162Z,39.85
2022-11-28T00:44:04.777Z,39.03
2022-11-28T00:46:32.106Z,40.78
2022-11-28T00:48:59.669Z,39.80
2022-11-28T00:51:29.918Z,37.50
2022-11-28T00:53:59.278Z,35.00
2022-11-28T00:56:30.791Z,29.92
2022-11-28T00:58:58.742Z,35.63
2022-11-28T01:01:34.775Z,37.92
2022-11-28T01:04:04.966Z,36.40
2022-11-28T01:06:38.598Z,33.28
2022-11-28T01:09:11.325Z,36.53
2022-11-28T01:11:39.868Z,36.30
2022-11-28T01:14:08.993Z,35.60
2022-11-28T01:16:36.573Z,29.67
2022-11-28T01:19:04.048Z,37.30
2022-11-28T01:21:31.807Z,34.78
2022-11-28T01:23:59.225Z,33.85
2022-11-28T01:26:28.655Z,35.45
2022-11-28T01:28:56.813Z,36.53
2022-11-28T01:31:26.569Z,35.00
2022-11-28T01:33:54.144Z,30.77
2022-11-28T01:36:22.485Z,31.62
2022-11-28T01:38:50.016Z,32.42
2022-11-28T01:41:20.434Z,32.17
2022-11-28T01:44:01.260Z,34.03
2022-11-28T01:46:29.698Z,27.37
2022-11-28T01:49:17.900Z,28.42
2022-11-28T01:51:48.583Z,30.48
2022-11-28T01:54:16.880Z,29.37
2022-11-28T01:57:23.731Z,26.40
2022-11-28T02:00:06.568Z,29.92
2022-11-28T02:02:52.558Z,34.20
2022-11-28T02:05:21.418Z,31.37
2022-11-28T02:07:49.181Z,26.77
2022-11-28T02:10:25.945Z,30.52
2022-11-28T02:13:02.967Z,31.60
2022-11-28T02:15:44.259Z,27.75
2022-11-28T02:18:36.664Z,28.55
2022-11-28T02:21:24.929Z,28.27
2022-11-28T02:24:11.567Z,30.65
2022-11-28T02:27:03.574Z,28.05
2022-11-28T02:29:37.215Z,29.52
2022-11-28T02:32:10.344Z,29.75
2022-11-28T02:34:52.831Z,34.00
2022-11-28T02:37:23.167Z,31.55
2022-11-28T02:40:00.563Z,28.62
2022-11-28T02:42:43.706Z,29.85
2022-11-28T02:45:16.818Z,30.98
2022-11-28T02:47:49.010Z,34.15
2022-11-28T02:50:26.851Z,29.35
2022-11-28T02:52:59.615Z,29.92
2022-11-28T02:55:27.729Z,26.70
2022-11-28T02:57:55.285Z,33.92
2022-11-28T03:00:29.388Z,28.70
2022-11-28T03:03:23.379Z,31.45
2022-11-28T03:06:16.248Z,30.48
2022-11-28T03:09:10.552Z,26.05
2022-11-28T03:12:02.934Z,30.62
2022-11-28T03:14:36.464Z,29.23
2022-11-28T03:17:47.207Z,32.63
2022-11-28T03:20:52.572Z,30.20
2022-11-28T03:23:23.894Z,33.27
2022-11-28T03:26:00.188Z,36.38
2022-11-28T03:28:49.278Z,36.35
2022-11-28T03:31:22.901Z,37.28
2022-11-28T03:33:58.607Z,32.03
2022-11-28T03:36:31.927Z,30.77
2022-11-28T03:39:09.870Z,31.73
2022-11-28T03:41:51.176Z,38.60
2022-11-28T03:44:23.515Z,31.05
2022-11-28T03:46:52.020Z,34.15
2022-11-28T03:49:27.744Z,32.97
2022-11-28T03:51:59.043Z,33.10
2022-11-28T03:54:41.843Z,29.52
2022-11-28T03:57:37.316Z,34.03
2022-11-28T04:00:07.686Z,35.60
2022-11-28T04:03:18.434Z,34.83
2022-11-28T04:05:54.217Z,41.53
2022-11-28T04:08:27.523Z,32.47
2022-11-28T04:11:24.399Z,33.15
2022-11-28T04:13:58.382Z,33.47
2022-11-28T04:16:34.929Z,30.02
2022-11-28T04:19:10.076Z,29.42
2022-11-28T04:21:45.079Z,30.75
2022-11-28T04:24:18.701Z,28.87
2022-11-28T04:26:52.447Z,28.48
2022-11-28T04:29:23.201Z,29.63
2022-11-28T04:31:53.272Z,28.23
2022-11-28T04:34:21.232Z,29.12
2022-11-28T04:36:49.406Z,30.10
2022-11-28T04:39:22.928Z,29.50
2022-11-28T04:41:53.873Z,28.10
2022-11-28T04:44:47.644Z,29.12
2022-11-28T04:47:15.503Z,28.87
2022-11-28T04:49:43.109Z,30.10
2022-11-28T04:52:15.083Z,28.45
2022-11-28T04:54:51.467Z,31.35
2022-11-28T04:57:50.683Z,30.75
2022-11-28T05:00:22.123Z,34.22
2022-11-28T05:02:51.113Z,34.22
2022-11-28T05:05:22.725Z,27.08
2022-11-28T05:07:50.361Z,27.58
2022-11-28T05:10:18.495Z,33.78
2022-11-28T05:12:46.129Z,28.38
2022-11-28T05:15:18.916Z,35.65
2022-11-28T05:17:46.969Z,27.62
2022-11-28T05:20:14.727Z,33.55
2022-11-28T05:22:42.106Z,32.33
2022-11-28T05:25:09.544Z,31.17
2022-11-28T05:27:37.415Z,30.23
2022-11-28T05:30:06.686Z,30.70
2022-11-28T05:32:34.075Z,28.27
2022-11-28T05:35:01.705Z,32.75
2022-11-28T05:37:29.081Z,30.65
2022-11-28T05:39:56.511Z,36.00
2022-11-28T05:42:25.853Z,32.05
2022-11-28T05:44:53.172Z,31.23
2022-11-28T05:47:20.599Z,28.95
2022-11-28T05:49:48.185Z,31.30
2022-11-28T05:52:15.513Z,33.00
2022-11-28T05:54:42.835Z,31.40
2022-11-28T05:57:10.451Z,33.05
2022-11-28T05:59:37.810Z,31.15
2022-11-28T06:02:05.224Z,33.78
2022-11-28T06:04:32.960Z,34.28
2022-11-28T06:07:00.299Z,33.88
2022-11-28T06:09:27.643Z,33.35
2022-11-28T06:11:55.286Z,33.95
2022-11-28T06:14:22.657Z,31.10
2022-11-28T06:16:50.153Z,35.28
2022-11-28T06:19:18.085Z,33.97
2022-11-28T06:24:30.655Z,34.50
2022-11-28T06:26:58.000Z,31.20
2022-11-28T06:29:25.326Z,34.00
2022-11-28T06:31:53.140Z,29.90
2022-11-28T06:34:20.509Z,34.35
2022-11-28T06:36:47.956Z,31.95
2022-11-28T06:39:16.779Z,27.50
2022-11-28T06:41:44.248Z,31.70
2022-11-28T06:44:15.874Z,28.20
2022-11-28T06:46:43.993Z,29.80
2022-11-28T06:49:13.070Z,31.55
2022-11-28T06:51:41.242Z,33.97
2022-11-28T06:54:10.007Z,31.92
2022-11-28T06:56:37.586Z,30.67
2022-11-28T06:59:05.174Z,33.83
2022-11-28T07:01:34.338Z,31.05
2022-11-28T07:04:02.160Z,30.67
2022-11-28T07:06:30.081Z,32.05
2022-11-28T07:08:58.917Z,33.33
2022-11-28T07:11:31.780Z,32.75
2022-11-28T07:14:02.148Z,31.42
2022-11-28T07:16:33.912Z,31.60
2022-11-28T07:19:01.751Z,30.88
2022-11-28T07:21:30.234Z,33.38
2022-11-28T07:23:58.969Z,35.60
2022-11-28T07:26:26.729Z,32.63
2022-11-28T07:28:56.097Z,34.63
2022-11-28T07:31:29.327Z,30.92
2022-11-28T07:33:57.003Z,33.70
2022-11-28T07:36:26.326Z,34.78
2022-11-28T07:39:14.102Z,30.23
2022-11-28T07:41:41.718Z,32.08
2022-11-28T07:44:10.043Z,29.33
2022-11-28T07:46:39.093Z,33.38
2022-11-28T07:49:06.754Z,27.17
2022-11-28T07:51:34.292Z,31.80
2022-11-28T07:54:03.163Z,34.75
2022-11-28T07:57:10.320Z,29.17
2022-11-28T07:59:21.265Z,25.17
2022-11-28T08:01:48.944Z,27.17
2022-11-28T08:04:16.661Z,26.45
2022-11-28T08:06:44.596Z,32.15
2022-11-28T08:09:12.221Z,31.60
2022-11-28T08:11:40.388Z,35.55
2022-11-28T08:14:07.798Z,31.70
2022-11-28T08:16:36.664Z,29.70
2022-11-28T08:19:04.297Z,25.12
2022-11-28T08:21:35.450Z,25.25
2022-11-28T08:24:03.959Z,28.33
2022-11-28T08:26:32.563Z,28.15
2022-11-28T08:29:01.541Z,26.80
2022-11-28T08:31:31.547Z,26.00
2022-11-28T08:34:01.348Z,24.63
2022-11-28T08:36:29.457Z,25.52
2022-11-28T08:39:09.855Z,30.48
2022-11-28T08:41:44.944Z,26.98
2022-11-28T08:44:12.461Z,26.05
2022-11-28T08:46:39.829Z,27.15
2022-11-28T08:49:07.569Z,27.37
2022-11-28T08:51:34.895Z,25.35
2022-11-28T08:54:02.209Z,30.45
2022-11-28T08:56:29.817Z,23.80
2022-11-28T08:58:57.147Z,25.48
2022-11-28T09:01:25.940Z,33.42
2022-11-28T09:03:54.809Z,29.92
2022-11-28T09:06:22.994Z,25.60
2022-11-28T09:08:51.330Z,24.12
2022-11-28T09:11:21.160Z,27.77
2022-11-28T09:13:48.681Z,25.62
2022-11-28T09:16:16.392Z,22.27
2022-11-28T09:18:44.042Z,23.92
2022-11-28T09:21:13.004Z,21.92
2022-11-28T09:23:41.759Z,22.90
2022-11-28T09:26:11.380Z,22.15
2022-11-28T09:28:38.858Z,22.20
2022-11-28T09:31:06.815Z,21.35
2022-11-28T09:33:35.565Z,22.08
2022-11-28T09:36:11.737Z,22.98
2022-11-28T09:38:39.891Z,22.02
2022-11-28T09:41:28.924Z,24.23
2022-11-28T09:44:24.187Z,24.17
2022-11-28T09:46:56.371Z,22.37
2022-11-28T09:49:42.117Z,22.40
2022-11-28T09:52:20.676Z,22.83
2022-11-28T09:55:00.511Z,23.12
2022-11-28T09:57:56.056Z,23.70
2022-11-28T10:00:38.972Z,21.17
2022-11-28T10:03:14.816Z,22.08
2022-11-28T10:06:08.504Z,24.83
2022-11-28T10:09:35.274Z,22.87
2022-11-28T10:12:13.602Z,22.98
2022-11-28T10:15:08.729Z,22.62
2022-11-28T10:17:48.032Z,26.98
2022-11-28T10:20:19.384Z,25.58
2022-11-28T10:22:52.301Z,25.90
2022-11-28T10:25:29.500Z,22.83
2022-11-28T10:27:57.570Z,25.90
2022-11-28T10:30:27.132Z,27.17
2022-11-28T10:33:23.423Z,24.50
2022-11-28T10:35:55.430Z,24.65
2022-11-28T10:38:27.340Z,28.60
2022-11-28T10:41:06.745Z,27.90
2022-11-28T10:43:46.460Z,24.63
2022-11-28T10:46:20.384Z,22.50
2022-11-28T10:49:10.600Z,25.20
2022-11-28T10:52:08.052Z,27.23
2022-11-28T10:55:03.358Z,26.45
2022-11-28T10:57:35.371Z,26.55
2022-11-28T11:00:12.251Z,27.25
2022-11-28T11:03:02.258Z,25.92
2022-11-28T11:05:37.044Z,26.02
2022-11-28T11:08:05.561Z,27.83
2022-11-28T11:10:40.482Z,28.15
2022-11-28T11:13:26.404Z,30.12
2022-11-28T11:16:01.245Z,27.17
2022-11-28T11:18:31.986Z,30.70
2022-11-28T11:21:20.917Z,29.05
2022-11-28T11:23:49.537Z,27.13
2022-11-28T11:26:23.663Z,25.23
2022-11-28T11:28:51.886Z,27.42
2022-11-28T11:31:25.136Z,26.30
2022-11-28T11:34:15.072Z,29.73
2022-11-28T11:36:42.697Z,30.85
2022-11-28T11:39:13.257Z,27.25
2022-11-28T11:41:45.660Z,31.10
2022-11-28T11:44:26.232Z,31.20
2022-11-28T11:47:05.276Z,29.10
2022-11-28T11:49:46.208Z,34.13
2022-11-28T11:52:13.985Z,34.55
2022-11-28T11:54:56.888Z,34.80
2022-11-28T11:57:37.361Z,33.25
2022-11-28T12:00:07.551Z,33.90
2022-11-28T12:02:46.957Z,33.38
2022-11-28T12:05:18.334Z,31.77
2022-11-28T12:07:50.348Z,31.90
2022-11-28T12:10:23.566Z,30.45
2022-11-28T12:12:52.567Z,30.52
2022-11-28T12:15:40.578Z,32.03
2022-11-28T12:18:15.587Z,30.37
2022-11-28T12:20:55.417Z,35.55
2022-11-28T12:23:52.815Z,33.50
2022-11-28T12:26:24.702Z,29.80
2022-11-28T12:29:30.279Z,37.20
2022-11-28T12:32:19.735Z,33.97
2022-11-28T12:34:57.765Z,33.40
2022-11-28T12:37:48.358Z,36.45
2022-11-28T12:40:38.321Z,35.17
2022-11-28T12:43:26.425Z,32.20
2022-11-28T12:46:06.127Z,33.13
2022-11-28T12:48:39.804Z,35.90
2022-11-28T12:51:17.958Z,33.45
2022-11-28T12:53:57.619Z,36.15
2022-11-28T12:56:42.815Z,32.55
2022-11-28T12:59:10.369Z,32.65
2022-11-28T13:02:01.364Z,28.80
2022-11-28T13:04:42.841Z,33.97
2022-11-28T13:07:17.954Z,31.37
2022-11-28T13:10:15.496Z,33.28
2022-11-28T13:12:59.270Z,33.28
2022-11-28T13:15:51.858Z,29.90
2022-11-28T13:18:46.118Z,29.63
2022-11-28T13:21:18.861Z,37.08
2022-11-28T13:23:49.054Z,34.75
2022-11-28T13:26:59.136Z,30.48
2022-11-28T13:29:44.724Z,31.75
2022-11-28T13:32:35.367Z,34.25
2022-11-28T13:35:03.600Z,36.70
2022-11-28T13:40:42.720Z,34.03
2022-11-28T13:43:24.867Z,36.90
2022-11-28T13:51:31.960Z,37.58
2022-11-28T13:54:18.895Z,33.80
2022-11-28T13:56:47.931Z,40.00
2022-11-28T13:59:18.915Z,39.47
2022-11-28T14:01:52.566Z,39.75
2022-11-28T14:04:20.916Z,37.72
2022-11-28T14:06:52.201Z,39.97
2022-11-28T14:10:08.709Z,43.80
2022-11-28T14:12:50.874Z,35.13
2022-11-28T14:15:32.893Z,41.05
2022-11-28T14:18:55.092Z,37.80
2022-11-28T14:21:38.761Z,38.47
2022-11-28T14:24:20.496Z,36.72
2022-11-28T14:26:57.274Z,36.50
2022-11-28T14:29:28.741Z,36.75
2022-11-28T14:32:27.864Z,41.90
2022-11-28T14:34:46.756Z,35.03
2022-11-28T14:37:52.092Z,40.63
2022-11-28T14:40:56.882Z,38.72
2022-11-28T14:43:24.582Z,36.47
2022-11-28T14:45:52.683Z,42.35
2022-11-28T14:48:23.181Z,35.45
2022-11-28T14:50:59.086Z,41.05
2022-11-28T14:53:45.861Z,36.13
2022-11-28T14:56:24.076Z,37.92
2022-11-28T14:58:56.481Z,40.10
2022-11-28T15:01:30.856Z,38.40
2022-11-28T15:04:17.642Z,40.30
2022-11-28T15:09:43.747Z,39.83
2022-11-28T15:12:26.762Z,43.72
2022-11-28T15:14:57.876Z,46.22
2022-11-28T15:17:30.682Z,46.15
2022-11-28T15:19:59.298Z,47.90
2022-11-28T15:22:39.039Z,46.13
2022-11-28T15:25:26.007Z,43.53
2022-11-28T15:27:55.450Z,45.33
2022-11-28T15:30:26.864Z,44.70
2022-11-28T15:33:00.583Z,43.58
2022-11-28T15:35:28.626Z,43.65
2022-11-28T15:37:58.100Z,46.00
2022-11-28T15:40:29.333Z,48.33
2022-11-28T15:42:57.141Z,45.47
2022-11-28T15:45:27.099Z,46.63
2022-11-28T15:47:55.892Z,43.58
2022-11-28T15:50:26.371Z,41.50
2022-11-28T15:52:55.591Z,44.33
2022-11-28T15:55:24.431Z,48.00
2022-11-28T15:57:52.066Z,48.97
2022-11-28T16:00:21.896Z,48.42
2022-11-28T16:02:49.776Z,54.53
2022-11-28T16:05:21.732Z,47.78
2022-11-28T16:07:51.275Z,48.33
2022-11-28T16:10:38.011Z,48.22
2022-11-28T16:13:12.068Z,46.15
2022-11-28T16:15:39.999Z,48.28
2022-11-28T16:18:08.256Z,44.65
2022-11-28T16:20:37.049Z,49.60
2022-11-28T16:23:10.410Z,49.47
2022-11-28T16:25:38.884Z,47.95
2022-11-28T16:28:36.971Z,42.20
2022-11-28T16:31:18.373Z,45.10
2022-11-28T16:33:47.805Z,45.60
2022-11-28T16:36:20.123Z,46.80
2022-11-28T16:38:49.520Z,43.63
2022-11-28T16:41:20.869Z,49.03
2022-11-28T16:44:15.905Z,44.15
2022-11-28T16:46:55.201Z,44.43
2022-11-28T16:49:31.860Z,49.00
2022-11-28T16:52:21.551Z,46.08
2022-11-28T16:55:13.917Z,43.42
2022-11-28T16:57:46.471Z,43.22
2022-11-28T17:00:15.082Z,46.00
2022-11-28T17:02:43.680Z,45.35
2022-11-28T17:05:12.504Z,48.28
2022-11-28T17:07:41.545Z,49.92
2022-11-28T17:10:13.197Z,48.03
2022-11-28T17:12:41.926Z,48.05
2022-11-28T17:15:15.999Z,53.53
2022-11-28T17:17:44.364Z,52.65
2022-11-28T17:20:13.243Z,51.53
2022-11-28T17:22:46.915Z,49.22
2022-11-28T17:25:19.914Z,50.30
2022-11-28T17:27:48.432Z,54.22
2022-11-28T17:30:18.939Z,53.63
2022-11-28T17:32:48.373Z,50.85
2022-11-28T17:35:20.366Z,53.08
2022-11-28T17:37:48.108Z,53.65
2022-11-28T17:40:34.296Z,50.85
2022-11-28T17:43:05.645Z,57.78
2022-11-28T17:45:37.739Z,47.38
2022-11-28T17:48:08.158Z,56.95
2022-11-28T17:50:36.846Z,57.30
2022-11-28T17:53:04.949Z,48.45
2022-11-28T17:55:33.863Z,49.35
2022-11-28T17:58:03.192Z,49.78
2022-11-28T18:00:33.142Z,48.60
2022-11-28T18:03:01.351Z,53.63
2022-11-28T18:05:29.231Z,52.33
2022-11-28T18:07:57.285Z,53.22
2022-11-28T18:10:25.535Z,55.40
2022-11-28T18:12:53.456Z,53.47
2022-11-28T18:15:21.903Z,52.45
2022-11-28T18:17:50.255Z,49.90
2022-11-28T18:20:20.421Z,48.47
2022-11-28T18:22:48.408Z,52.38
2022-11-28T18:25:16.747Z,19.62
2022-11-28T18:27:44.795Z,47.13
2022-11-28T18:30:15.073Z,53.08
2022-11-28T18:32:44.868Z,59.60
2022-11-28T18:35:12.854Z,52.80
2022-11-28T18:37:44.047Z,52.28
2022-11-28T18:40:12.628Z,52.53
2022-11-28T18:42:45.148Z,54.47
2022-11-28T18:45:13.826Z,49.22
2022-11-28T18:47:42.956Z,57.08
2022-11-28T18:50:12.971Z,55.53
2022-11-28T18:52:41.311Z,44.30
2022-11-28T18:55:11.022Z,54.17
2022-11-28T18:57:39.079Z,54.35
2022-11-28T19:00:08.262Z,52.08
2022-11-28T19:02:36.637Z,50.42
2022-11-28T19:05:04.906Z,50.08
2022-11-28T19:07:33.410Z,52.80
2022-11-28T19:10:01.651Z,51.53
2022-11-28T19:12:29.570Z,52.85
2022-11-28T19:15:02.124Z,52.08
2022-11-28T19:17:30.882Z,49.95
2022-11-28T19:19:58.684Z,50.97
2022-11-28T19:22:26.473Z,49.55
2022-11-28T19:24:54.479Z,12.82
2022-11-28T19:27:22.986Z,50.67
2022-11-28T19:29:51.960Z,49.65
2022-11-28T19:32:20.007Z,43.38
2022-11-28T19:34:53.224Z,53.90
2022-11-28T19:37:22.105Z,46.88
2022-11-28T19:39:50.302Z,49.28
2022-11-28T19:42:18.591Z,49.40
2022-11-28T19:44:46.669Z,45.20
2022-11-28T19:47:15.901Z,48.33
2022-11-28T19:49:44.178Z,50.10
2022-11-28T19:52:11.872Z,50.63
2022-11-28T19:54:40.291Z,54.65
2022-11-28T19:57:11.658Z,47.72
2022-11-28T19:59:39.886Z,50.88
2022-11-28T20:02:09.597Z,55.03
2022-11-28T20:04:38.807Z,54.33
2022-11-28T20:07:08.194Z,57.70
2022-11-28T20:09:36.571Z,51.10
2022-11-28T20:12:05.749Z,50.33
2022-11-28T20:14:39.815Z,58.20
2022-11-28T20:17:08.264Z,55.47
2022-11-28T20:19:37.725Z,58.35
2022-11-28T20:22:05.617Z,56.45
2022-11-28T20:24:34.106Z,56.17
2022-11-28T20:27:02.083Z,52.67
2022-11-28T20:29:30.690Z,54.28
2022-11-28T20:31:58.659Z,53.63
2022-11-28T20:34:27.345Z,51.67
2022-11-28T20:36:55.417Z,52.58
2022-11-28T20:39:24.717Z,49.53
2022-11-28T20:41:53.921Z,53.53
2022-11-28T20:44:21.954Z,52.25
2022-11-28T20:46:50.489Z,51.35
2022-11-28T20:49:18.853Z,54.45
2022-11-28T20:51:47.176Z,54.63
2022-11-28T20:54:15.814Z,48.38
2022-11-28T20:57:19.797Z,60.22
2022-11-28T20:59:33.440Z,52.55
2022-11-28T21:02:01.394Z,52.95
2022-11-28T21:04:29.111Z,54.55
2022-11-28T21:06:57.107Z,54.45
2022-11-28T21:09:28.648Z,50.30
2022-11-28T21:11:59.036Z,53.85
2022-11-28T21:14:30.147Z,54.33
2022-11-28T21:16:58.530Z,53.17
2022-11-28T21:19:26.388Z,59.85
2022-11-28T21:21:55.845Z,60.47
2022-11-28T21:24:23.813Z,58.45
2022-11-28T21:26:54.400Z,58.87
2022-11-28T21:29:23.599Z,56.13
2022-11-28T21:31:52.111Z,58.65
2022-11-28T21:34:19.832Z,55.05
2022-11-28T21:36:47.591Z,63.47
2022-11-28T21:39:17.630Z,57.75
2022-11-28T21:41:45.245Z,57.58
2022-11-28T21:44:12.876Z,58.85
2022-11-28T21:46:41.664Z,57.15
2022-11-28T21:49:08.982Z,59.55
2022-11-28T21:51:37.329Z,55.40
2022-11-28T21:54:04.813Z,55.33
2022-11-28T21:56:32.408Z,53.05
2022-11-28T21:59:00.004Z,53.35
2022-11-28T22:01:27.581Z,53.05
2022-11-28T22:03:59.135Z,51.58
2022-11-28T22:06:29.903Z,56.92
2022-11-28T22:08:57.938Z,57.62
2022-11-28T22:11:25.670Z,58.72
2022-11-28T22:13:53.114Z,51.53
2022-11-28T22:16:23.629Z,56.42
2022-11-28T22:18:53.573Z,54.30
2022-11-28T22:21:50.528Z,52.08
2022-11-28T22:24:09.006Z,52.85
2022-11-28T22:26:36.709Z,54.28
2022-11-28T22:29:04.487Z,54.53
2022-11-28T22:31:32.446Z,55.70
2022-11-28T22:34:00.119Z,50.95
2022-11-28T22:36:27.670Z,52.38
2022-11-28T22:38:56.970Z,54.22
2022-11-28T22:41:28.756Z,51.42
2022-11-28T22:44:00.191Z,53.33
2022-11-28T22:46:28.401Z,50.95
2022-11-28T22:48:56.055Z,56.67
2022-11-28T22:51:25.431Z,51.72
2022-11-28T22:53:54.845Z,56.75
2022-11-28T22:56:24.437Z,56.45
2022-11-28T22:58:52.112Z,51.92
2022-11-28T23:01:30.384Z,52.78
2022-11-28T23:03:58.283Z,57.10
2022-11-28T23:06:31.349Z,55.17
2022-11-28T23:08:59.802Z,54.20
2022-11-28T23:11:33.311Z,61.05
2022-11-28T23:14:01.480Z,56.92
2022-11-28T23:16:32.385Z,57.17
2022-11-28T23:19:03.477Z,51.92
2022-11-28T23:21:35.638Z,14.93
2022-11-28T23:24:04.733Z,57.92
2022-11-28T23:26:33.963Z,59.67
2022-11-28T23:29:04.221Z,52.72
2022-11-28T23:31:33.748Z,28.70
2022-11-28T23:34:01.644Z,60.50
2022-11-28T23:36:31.315Z,58.72
2022-11-28T23:39:01.441Z,8.70
2022-11-28T23:41:29.708Z,53.67
2022-11-28T23:43:57.838Z,51.60
2022-11-28T23:46:26.390Z,59.40
2022-11-28T23:48:53.935Z,67.20
2022-11-28T23:51:24.488Z,61.85
2022-11-28T23:53:52.433Z,55.38
2022-11-28T23:56:24.935Z,50.88
2022-11-28T23:58:53.622Z,54.03
